Time;durP1;ratioP1;P1;durP2;ratioP2;P2;SDS_P1;SDS_P2;PMS_P1;PMS_P2;Temp;Humidity;BMP_temperature;BMP_pressure;BME280_temperature;BME280_humidity;BME280_pressure;Samples;Min_cycle;Max_cycle;Signal;HPM_P1;HPM_P2
2021/09/22 00:00:51;;;;;;;13.07;7.50;;;10.00;99.90;;;;;;5061067;28;20033;-61
2021/09/22 00:03:17;;;;;;;13.70;7.75;;;10.00;99.90;;;;;;5064058;28;20028;-62
2021/09/22 00:05:42;;;;;;;11.35;7.15;;;10.00;99.90;;;;;;5061639;28;20059;-62
2021/09/22 00:08:08;;;;;;;13.18;7.18;;;9.90;99.90;;;;;;5062080;28;20033;-61
2021/09/22 00:10:34;;;;;;;12.75;8.10;;;9.90;99.90;;;;;;5064667;28;20044;-61
2021/09/22 00:12:59;;;;;;;13.27;8.45;;;9.90;99.90;;;;;;5062525;28;20050;-62
2021/09/22 00:15:26;;;;;;;14.82;8.27;;;9.90;99.90;;;;;;5067242;28;20021;-61
2021/09/22 00:17:52;;;;;;;17.73;8.63;;;9.90;99.90;;;;;;5074248;28;20068;-62
2021/09/22 00:20:22;;;;;;;17.20;9.00;;;9.90;99.90;;;;;;5061434;28;20056;-62
2021/09/22 00:22:49;;;;;;;14.80;8.23;;;9.80;99.90;;;;;;5060690;28;20029;-62
2021/09/22 00:25:15;;;;;;;16.20;7.63;;;9.80;99.90;;;;;;5060806;28;20507;-62
2021/09/22 00:27:42;;;;;;;21.50;8.30;;;9.90;99.90;;;;;;5063997;28;20033;-62
2021/09/22 00:30:09;;;;;;;14.27;7.93;;;10.00;99.90;;;;;;5061812;28;20422;-62
2021/09/22 00:32:35;;;;;;;15.73;8.07;;;10.00;99.90;;;;;;5066244;28;20028;-62
2021/09/22 00:35:00;;;;;;;19.42;7.63;;;10.00;99.90;;;;;;5065587;28;20480;-61
2021/09/22 00:37:26;;;;;;;13.82;8.10;;;10.00;99.90;;;;;;5064200;28;20095;-62
2021/09/22 00:39:52;;;;;;;13.98;8.30;;;10.00;99.90;;;;;;5064977;28;20040;-62
2021/09/22 00:42:17;;;;;;;19.10;8.43;;;10.00;99.90;;;;;;5062011;28;20036;-62
2021/09/22 00:44:55;;;;;;;20.08;9.43;;;9.90;99.90;;;;;;5065739;28;20089;-63
2021/09/22 00:47:30;;;;;;;17.77;8.95;;;9.90;99.90;;;;;;5059938;28;22061;-62
2021/09/22 00:49:56;;;;;;;16.75;9.32;;;9.90;99.90;;;;;;5063934;28;20047;-61
2021/09/22 00:52:23;;;;;;;24.10;9.48;;;9.90;99.90;;;;;;5065811;28;20472;-61
2021/09/22 00:54:49;;;;;;;16.42;9.00;;;9.80;99.90;;;;;;5065757;28;20081;-62
2021/09/22 00:57:17;;;;;;;15.23;8.80;;;9.80;99.90;;;;;;5076410;28;20047;-62
2021/09/22 00:59:44;;;;;;;16.45;8.50;;;9.80;99.90;;;;;;5064725;28;20028;-61
2021/09/22 01:02:10;;;;;;;14.60;7.93;;;9.60;99.90;;;;;;5067581;28;20027;-61
2021/09/22 01:04:37;;;;;;;17.77;8.48;;;9.60;99.90;;;;;;5065536;28;20027;-61
2021/09/22 01:07:04;;;;;;;14.13;8.82;;;9.60;99.90;;;;;;5065701;28;20036;-62
2021/09/22 01:09:30;;;;;;;14.85;8.40;;;9.50;99.90;;;;;;5065215;28;20025;-61
2021/09/22 01:11:55;;;;;;;18.60;10.43;;;9.50;99.90;;;;;;5068846;28;20078;-61
2021/09/22 01:14:22;;;;;;;22.98;9.90;;;9.50;99.90;;;;;;5068841;28;20098;-62
2021/09/22 01:16:48;;;;;;;17.17;9.75;;;9.40;99.90;;;;;;5070575;28;21630;-62
2021/09/22 01:19:14;;;;;;;18.75;10.77;;;9.50;99.90;;;;;;5066113;28;20028;-61
2021/09/22 01:21:46;;;;;;;18.88;9.85;;;9.40;99.90;;;;;;5065242;28;20040;-62
2021/09/22 01:24:12;;;;;;;21.15;10.60;;;9.50;99.90;;;;;;5066856;28;20389;-62
2021/09/22 01:26:38;;;;;;;19.70;10.45;;;9.50;99.90;;;;;;5065996;28;20108;-62
2021/09/22 01:29:04;;;;;;;15.55;10.20;;;9.50;99.90;;;;;;5067630;28;20036;-62
2021/09/22 01:31:30;;;;;;;20.45;9.75;;;9.50;99.90;;;;;;5079472;28;20024;-62
2021/09/22 01:34:00;;;;;;;18.85;9.77;;;9.50;99.90;;;;;;5065086;28;20033;-62
2021/09/22 01:36:25;;;;;;;17.50;9.98;;;9.50;99.90;;;;;;5064399;28;20514;-61
2021/09/22 01:38:51;;;;;;;16.95;10.00;;;9.50;99.90;;;;;;5063996;28;20103;-62
2021/09/22 01:41:16;;;;;;;19.60;10.73;;;9.60;99.90;;;;;;5092384;22;20075;-58
2021/09/22 01:43:43;;;;;;;21.58;11.70;;;9.60;99.90;;;;;;5069602;28;20021;-62
2021/09/22 01:46:09;;;;;;;19.10;10.13;;;9.50;99.90;;;;;;5072731;28;20063;-60
2021/09/22 01:48:35;;;;;;;21.60;10.18;;;9.60;99.90;;;;;;5071696;28;20021;-60
2021/09/22 01:51:03;;;;;;;16.95;10.45;;;9.50;99.90;;;;;;5066511;28;20415;-60
2021/09/22 01:53:29;;;;;;;20.80;11.32;;;9.50;99.90;;;;;;5046139;28;20491;-60
2021/09/22 01:55:56;;;;;;;18.73;11.10;;;9.50;99.90;;;;;;5062467;28;20029;-58
2021/09/22 01:58:22;;;;;;;16.65;10.18;;;9.40;99.90;;;;;;5071705;28;20082;-60
2021/09/22 02:00:49;;;;;;;27.65;11.25;;;9.40;99.90;;;;;;5068191;28;20024;-60
2021/09/22 02:03:16;;;;;;;19.40;11.27;;;9.40;99.90;;;;;;5063975;28;20139;-59
2021/09/22 02:05:42;;;;;;;22.38;11.05;;;9.40;99.90;;;;;;5061166;28;20029;-59
2021/09/22 02:08:08;;;;;;;16.80;10.25;;;9.40;99.90;;;;;;5065283;28;20031;-57
2021/09/22 02:10:34;;;;;;;20.58;10.57;;;9.30;99.90;;;;;;5063200;28;20032;-60
2021/09/22 02:13:00;;;;;;;22.77;11.23;;;9.30;99.90;;;;;;5061634;28;20024;-61
2021/09/22 02:15:26;;;;;;;19.08;10.40;;;9.20;99.90;;;;;;5063041;28;20525;-59
2021/09/22 02:17:51;;;;;;;18.02;10.35;;;9.30;99.90;;;;;;5066524;28;20028;-62
2021/09/22 02:20:17;;;;;;;19.75;10.65;;;9.20;99.90;;;;;;5062529;28;20028;-60
2021/09/22 02:22:43;;;;;;;22.55;10.07;;;9.20;99.90;;;;;;5065853;28;20488;-59
2021/09/22 02:25:10;;;;;;;20.85;10.75;;;9.20;99.90;;;;;;5062328;28;20033;-59
2021/09/22 02:27:36;;;;;;;21.65;11.25;;;9.10;99.90;;;;;;5062277;28;20025;-58
2021/09/22 02:30:05;;;;;;;19.90;10.38;;;9.10;99.90;;;;;;5065939;28;20051;-61
2021/09/22 02:32:31;;;;;;;20.08;11.82;;;9.10;99.90;;;;;;5062820;28;20027;-59
2021/09/22 02:34:56;;;;;;;16.75;10.50;;;9.00;99.90;;;;;;5064151;28;20028;-62
2021/09/22 02:37:22;;;;;;;22.00;11.35;;;9.00;99.90;;;;;;5061685;28;20108;-63
2021/09/22 02:39:47;;;;;;;27.50;11.80;;;9.00;99.90;;;;;;5067151;28;20024;-62
2021/09/22 02:42:13;;;;;;;18.45;10.77;;;9.00;99.90;;;;;;5053306;28;20476;-61
2021/09/22 02:44:39;;;;;;;20.15;10.27;;;9.00;99.90;;;;;;5061390;28;20499;-61
2021/09/22 02:47:04;;;;;;;20.33;10.85;;;9.00;99.90;;;;;;5045100;28;20036;-60
2021/09/22 02:49:30;;;;;;;24.90;11.15;;;9.00;99.90;;;;;;5064396;28;20036;-59
2021/09/22 02:51:55;;;;;;;22.55;11.23;;;8.90;99.90;;;;;;5062011;28;20034;-64
2021/09/22 02:54:21;;;;;;;23.33;11.20;;;8.90;99.90;;;;;;5060945;28;20756;-63
2021/09/22 02:56:47;;;;;;;23.10;11.30;;;8.90;99.90;;;;;;5070179;28;20078;-60
2021/09/22 02:59:12;;;;;;;21.10;9.98;;;8.90;99.90;;;;;;5065598;28;20112;-64
2021/09/22 03:01:38;;;;;;;18.92;11.80;;;8.90;99.90;;;;;;5050506;28;20028;-63
2021/09/22 03:04:04;;;;;;;23.92;10.68;;;8.80;99.90;;;;;;5061364;28;20024;-64
2021/09/22 03:06:29;;;;;;;20.70;11.88;;;8.80;99.90;;;;;;5062023;28;20070;-64
2021/09/22 03:08:55;;;;;;;18.45;11.85;;;8.80;99.90;;;;;;5059804;28;20037;-63
2021/09/22 03:11:20;;;;;;;19.35;11.45;;;8.80;99.90;;;;;;5059438;28;20021;-63
2021/09/22 03:13:46;;;;;;;23.88;12.65;;;8.80;99.90;;;;;;5061369;28;20523;-63
2021/09/22 03:16:12;;;;;;;26.40;11.32;;;8.80;99.90;;;;;;5060177;28;20028;-60
2021/09/22 03:18:38;;;;;;;17.35;11.00;;;8.70;99.90;;;;;;5061313;28;20024;-63
2021/09/22 03:21:04;;;;;;;20.70;10.93;;;8.70;99.90;;;;;;5065529;28;20054;-63
2021/09/22 03:23:29;;;;;;;21.02;11.52;;;8.70;99.90;;;;;;5067990;28;20036;-60
2021/09/22 03:25:55;;;;;;;17.20;10.77;;;8.70;99.90;;;;;;5063205;28;20037;-61
2021/09/22 03:28:22;;;;;;;19.40;11.57;;;8.70;99.90;;;;;;5065007;28;20042;-63
2021/09/22 03:30:48;;;;;;;20.10;10.70;;;8.80;99.90;;;;;;5041582;28;20049;-60
2021/09/22 03:33:13;;;;;;;22.88;11.68;;;8.90;99.90;;;;;;5062557;28;20077;-59
2021/09/22 03:35:39;;;;;;;21.92;11.82;;;8.80;99.90;;;;;;5060559;28;20054;-62
2021/09/22 03:38:06;;;;;;;20.85;11.10;;;8.80;99.90;;;;;;5060912;28;20314;-61
2021/09/22 03:40:32;;;;;;;19.33;11.40;;;8.80;99.90;;;;;;5064265;28;20406;-60
2021/09/22 03:42:57;;;;;;;23.25;11.18;;;8.80;99.90;;;;;;5060872;28;20514;-60
2021/09/22 03:45:23;;;;;;;18.33;11.32;;;8.80;99.90;;;;;;5062051;28;20052;-63
2021/09/22 03:47:49;;;;;;;23.42;11.40;;;8.80;99.90;;;;;;5063718;28;20040;-62
2021/09/22 03:50:15;;;;;;;19.13;11.45;;;8.70;99.90;;;;;;5061154;28;20040;-61
2021/09/22 03:52:41;;;;;;;15.60;10.23;;;8.70;99.90;;;;;;5059495;28;20040;-60
2021/09/22 03:55:07;;;;;;;22.23;11.73;;;8.70;99.90;;;;;;5063110;28;20040;-58
2021/09/22 03:57:33;;;;;;;17.42;10.77;;;8.70;99.90;;;;;;5061274;28;20028;-61
2021/09/22 03:59:58;;;;;;;18.67;10.82;;;8.60;99.90;;;;;;5061600;28;20499;-61
2021/09/22 04:02:24;;;;;;;20.58;10.20;;;8.60;99.90;;;;;;5061333;28;20395;-60
2021/09/22 04:04:50;;;;;;;18.33;11.30;;;8.60;99.90;;;;;;5060532;28;20029;-61
2021/09/22 04:07:16;;;;;;;18.75;10.88;;;8.50;99.90;;;;;;5060780;28;20020;-61
2021/09/22 04:09:41;;;;;;;18.88;10.52;;;8.50;99.90;;;;;;5061638;28;20028;-58
2021/09/22 04:12:07;;;;;;;19.83;10.27;;;8.40;99.90;;;;;;5060424;28;20024;-59
2021/09/22 04:14:33;;;;;;;24.55;11.95;;;8.40;99.90;;;;;;5061590;28;20024;-61
2021/09/22 04:16:59;;;;;;;18.27;10.55;;;8.40;99.90;;;;;;5060838;28;20032;-57
2021/09/22 04:19:24;;;;;;;17.30;10.50;;;8.40;99.90;;;;;;5059850;28;20024;-61
2021/09/22 04:21:50;;;;;;;19.25;10.40;;;8.40;99.90;;;;;;5061909;28;20597;-59
2021/09/22 04:24:16;;;;;;;23.92;11.98;;;8.40;99.90;;;;;;5061917;28;20021;-62
2021/09/22 04:26:42;;;;;;;21.42;10.30;;;8.40;99.90;;;;;;5059622;28;20404;-62
2021/09/22 04:29:08;;;;;;;22.88;12.35;;;8.40;99.90;;;;;;5062321;28;20024;-61
2021/09/22 04:31:33;;;;;;;23.52;11.70;;;8.40;99.90;;;;;;5062433;28;20032;-59
2021/09/22 04:33:59;;;;;;;20.52;10.75;;;8.30;99.90;;;;;;5060753;28;20285;-59
2021/09/22 04:36:28;;;;;;;23.92;11.55;;;8.40;99.90;;;;;;5060583;28;20445;-61
2021/09/22 04:38:53;;;;;;;22.60;11.32;;;8.30;99.90;;;;;;5059066;28;20032;-62
2021/09/22 04:41:19;;;;;;;20.52;11.38;;;8.40;99.90;;;;;;5063120;28;20063;-62
2021/09/22 04:43:45;;;;;;;22.90;12.18;;;8.40;99.90;;;;;;5067548;28;20123;-63
2021/09/22 04:46:10;;;;;;;20.17;10.77;;;8.40;99.90;;;;;;5058907;28;20028;-62
2021/09/22 04:48:39;;;;;;;20.42;11.40;;;8.40;99.90;;;;;;5059235;28;20059;-62
2021/09/22 04:51:04;;;;;;;21.13;11.82;;;8.30;99.90;;;;;;5060858;28;20100;-60
2021/09/22 04:53:30;;;;;;;18.60;10.90;;;8.30;99.90;;;;;;5060192;28;20468;-63
2021/09/22 04:55:56;;;;;;;21.92;12.38;;;8.30;99.90;;;;;;5063010;28;20759;-63
2021/09/22 04:58:22;;;;;;;24.05;12.57;;;8.40;99.90;;;;;;5060218;28;20021;-60
2021/09/22 05:00:48;;;;;;;28.77;12.10;;;8.40;99.90;;;;;;5064059;28;20048;-62
2021/09/22 05:03:15;;;;;;;19.98;12.20;;;8.50;99.90;;;;;;5068014;28;20031;-62
2021/09/22 05:05:41;;;;;;;24.23;11.45;;;8.50;99.90;;;;;;5058378;28;20100;-61
2021/09/22 05:08:06;;;;;;;19.92;11.35;;;8.40;99.90;;;;;;5060544;28;20099;-60
2021/09/22 05:10:32;;;;;;;21.52;11.48;;;8.40;99.90;;;;;;5059818;28;20024;-62
2021/09/22 05:12:58;;;;;;;19.45;10.73;;;8.40;99.90;;;;;;5064858;28;20036;-60
2021/09/22 05:15:23;;;;;;;20.42;10.90;;;8.40;99.90;;;;;;5059564;28;20028;-57
2021/09/22 05:17:49;;;;;;;20.17;10.38;;;8.30;99.90;;;;;;5059755;28;20032;-61
2021/09/22 05:20:14;;;;;;;22.17;11.45;;;8.30;99.90;;;;;;5059173;28;20041;-62
2021/09/22 05:22:40;;;;;;;22.25;12.30;;;8.30;99.90;;;;;;5059543;28;20082;-62
2021/09/22 05:25:06;;;;;;;26.10;12.75;;;8.30;99.90;;;;;;5060641;28;20029;-62
2021/09/22 05:27:31;;;;;;;23.13;11.55;;;8.20;99.90;;;;;;5061014;28;20025;-59
2021/09/22 05:29:57;;;;;;;21.35;11.20;;;8.20;99.90;;;;;;5073106;28;20046;-61
2021/09/22 05:32:23;;;;;;;25.45;12.73;;;8.20;99.90;;;;;;5059270;28;20082;-59
2021/09/22 05:34:48;;;;;;;19.50;11.73;;;8.20;99.90;;;;;;5058435;28;20032;-64
2021/09/22 05:37:14;;;;;;;20.65;11.73;;;8.30;99.90;;;;;;5061644;28;20630;-62
2021/09/22 05:39:40;;;;;;;19.00;12.00;;;8.20;99.90;;;;;;5063561;28;20048;-59
2021/09/22 05:42:08;;;;;;;32.55;12.00;;;8.20;99.90;;;;;;5065064;28;20028;-62
2021/09/22 05:44:34;;;;;;;25.80;12.30;;;8.30;99.90;;;;;;5064758;28;20037;-59
2021/09/22 05:47:00;;;;;;;24.33;12.52;;;8.30;99.90;;;;;;5062575;28;20036;-60
2021/09/22 05:49:26;;;;;;;21.60;11.82;;;8.40;99.90;;;;;;5060354;28;20028;-61
2021/09/22 05:51:52;;;;;;;30.60;12.73;;;8.40;99.90;;;;;;5063917;28;20021;-58
2021/09/22 05:54:17;;;;;;;20.45;11.80;;;8.50;99.90;;;;;;5063223;28;20449;-64
2021/09/22 05:56:45;;;;;;;22.65;12.35;;;8.50;99.90;;;;;;5062510;28;20067;-62
2021/09/22 05:59:11;;;;;;;19.40;11.38;;;8.50;99.90;;;;;;5062843;28;20025;-61
2021/09/22 06:01:36;;;;;;;25.55;12.55;;;8.50;99.90;;;;;;5070896;28;20406;-63
2021/09/22 06:04:02;;;;;;;21.52;11.95;;;8.50;99.90;;;;;;5062337;28;20098;-63
2021/09/22 06:06:28;;;;;;;23.75;11.80;;;8.60;99.90;;;;;;5065487;28;20032;-60
2021/09/22 06:08:54;;;;;;;18.85;11.68;;;8.60;99.90;;;;;;5063836;28;20016;-59
2021/09/22 06:11:20;;;;;;;27.25;12.48;;;8.60;99.90;;;;;;5063463;28;20028;-58
2021/09/22 06:13:46;;;;;;;22.25;12.43;;;8.70;99.90;;;;;;5062041;28;20028;-59
2021/09/22 06:16:12;;;;;;;20.60;11.88;;;8.70;99.90;;;;;;5062740;28;20023;-61
2021/09/22 06:18:37;;;;;;;24.38;12.63;;;8.80;99.90;;;;;;5062677;28;20024;-57
2021/09/22 06:21:04;;;;;;;21.10;12.23;;;8.90;99.90;;;;;;5062999;28;20024;-60
2021/09/22 06:23:30;;;;;;;21.65;11.98;;;9.00;99.90;;;;;;5063340;28;20025;-59
2021/09/22 06:25:55;;;;;;;23.88;11.65;;;9.00;99.90;;;;;;5060893;28;20044;-58
2021/09/22 06:28:21;;;;;;;20.98;12.48;;;9.00;99.90;;;;;;5071261;28;20040;-55
2021/09/22 06:30:46;;;;;;;20.83;12.05;;;9.10;99.90;;;;;;5062387;28;20032;-60
2021/09/22 06:33:12;;;;;;;30.63;12.63;;;9.10;99.90;;;;;;5063861;28;20051;-59
2021/09/22 06:35:38;;;;;;;25.63;12.90;;;9.20;99.90;;;;;;5059120;28;20056;-61
2021/09/22 06:38:04;;;;;;;21.02;12.88;;;9.20;99.90;;;;;;5061616;28;20024;-59
2021/09/22 06:40:30;;;;;;;23.50;12.30;;;9.30;99.90;;;;;;5064480;28;20044;-62
2021/09/22 06:42:55;;;;;;;29.23;12.85;;;9.40;99.90;;;;;;5064254;28;20033;-62
2021/09/22 06:45:21;;;;;;;21.58;12.25;;;9.50;99.90;;;;;;5062296;28;20031;-59
2021/09/22 06:47:48;;;;;;;25.73;13.23;;;9.60;99.90;;;;;;5062206;28;20027;-61
2021/09/22 06:50:15;;;;;;;24.45;13.35;;;9.60;99.90;;;;;;5061672;28;20041;-61
2021/09/22 06:52:40;;;;;;;23.95;12.60;;;9.70;99.90;;;;;;5061602;28;20502;-59
2021/09/22 06:55:06;;;;;;;30.42;13.75;;;9.80;99.90;;;;;;5061050;28;20020;-57
2021/09/22 06:57:33;;;;;;;24.98;12.50;;;9.90;99.90;;;;;;5062260;28;20033;-62
2021/09/22 06:59:59;;;;;;;35.50;12.80;;;9.90;99.90;;;;;;5060303;28;20020;-62
2021/09/22 07:02:25;;;;;;;23.80;12.88;;;10.00;99.90;;;;;;5062511;28;20037;-60
2021/09/22 07:04:50;;;;;;;27.52;13.38;;;10.00;99.90;;;;;;5061250;28;20056;-59
2021/09/22 07:07:16;;;;;;;24.83;13.25;;;10.20;99.90;;;;;;5062631;28;20032;-56
2021/09/22 07:09:41;;;;;;;26.25;13.35;;;10.20;99.90;;;;;;5062271;28;20034;-58
2021/09/22 07:12:07;;;;;;;30.60;14.45;;;10.30;99.90;;;;;;5062757;28;20067;-60
2021/09/22 07:14:33;;;;;;;27.55;14.65;;;10.30;99.90;;;;;;5061983;28;20652;-60
2021/09/22 07:16:58;;;;;;;25.33;14.23;;;10.30;99.90;;;;;;5060112;28;20487;-58
2021/09/22 07:19:24;;;;;;;33.17;14.27;;;10.30;99.90;;;;;;5060927;28;20368;-62
2021/09/22 07:21:49;;;;;;;24.23;13.73;;;10.40;99.90;;;;;;5060638;28;20430;-62
2021/09/22 07:24:15;;;;;;;20.88;13.00;;;10.40;99.90;;;;;;5061337;28;20051;-62
2021/09/22 07:26:41;;;;;;;26.98;12.98;;;10.50;99.90;;;;;;5070079;28;20446;-61
2021/09/22 07:29:07;;;;;;;24.70;12.93;;;10.60;99.90;;;;;;5075035;28;20024;-60
2021/09/22 07:31:34;;;;;;;27.17;12.82;;;10.70;99.90;;;;;;5075770;28;20028;-60
2021/09/22 07:33:59;;;;;;;30.63;12.75;;;10.80;99.90;;;;;;5065660;28;20091;-61
2021/09/22 07:36:25;;;;;;;30.08;13.13;;;10.80;99.90;;;;;;5081967;28;20028;-59
2021/09/22 07:38:51;;;;;;;25.95;13.93;;;10.90;99.90;;;;;;5081668;28;20035;-60
2021/09/22 07:41:17;;;;;;;23.35;14.10;;;10.90;99.90;;;;;;5087953;22;20044;-61
2021/09/22 07:43:43;;;;;;;22.30;12.60;;;11.00;99.90;;;;;;5056976;28;20040;-60
2021/09/22 07:46:08;;;;;;;28.08;13.63;;;11.10;99.90;;;;;;5054899;28;20029;-60
2021/09/22 07:48:35;;;;;;;21.15;13.10;;;11.20;99.90;;;;;;5051846;28;20024;-60
2021/09/22 07:51:02;;;;;;;20.98;12.95;;;11.20;99.90;;;;;;5056356;28;20129;-60
2021/09/22 07:53:27;;;;;;;24.23;13.43;;;11.30;99.90;;;;;;5050572;28;20195;-61
2021/09/22 07:55:53;;;;;;;29.23;13.55;;;11.40;99.90;;;;;;5050762;28;20536;-60
2021/09/22 07:58:19;;;;;;;23.00;13.73;;;11.50;99.90;;;;;;5050394;28;20025;-61
2021/09/22 08:00:45;;;;;;;29.13;14.25;;;11.50;99.90;;;;;;5066944;28;20027;-61
2021/09/22 08:03:11;;;;;;;24.73;14.15;;;11.60;99.90;;;;;;5061960;28;20028;-61
2021/09/22 08:05:38;;;;;;;20.70;13.82;;;11.70;99.90;;;;;;5051239;28;20032;-59
2021/09/22 08:08:08;;;;;;;26.38;15.25;;;11.70;99.90;;;;;;5056008;28;20021;-61
2021/09/22 08:10:38;;;;;;;25.23;14.65;;;11.90;99.90;;;;;;5069363;28;20104;-61
2021/09/22 08:13:04;;;;;;;30.42;15.88;;;11.90;99.90;;;;;;5067273;28;20506;-62
2021/09/22 08:15:30;;;;;;;26.13;14.10;;;12.00;99.90;;;;;;5068204;28;20016;-62
2021/09/22 08:17:57;;;;;;;33.33;15.80;;;12.10;99.90;;;;;;5065981;28;20040;-62
2021/09/22 08:20:23;;;;;;;25.45;14.00;;;12.10;99.90;;;;;;5052422;28;20025;-62
2021/09/22 08:22:50;;;;;;;29.35;16.30;;;12.20;99.90;;;;;;5057682;28;20025;-60
2021/09/22 08:25:16;;;;;;;29.33;15.63;;;12.40;99.90;;;;;;5062796;28;20036;-62
2021/09/22 08:27:42;;;;;;;30.23;17.10;;;12.40;99.90;;;;;;5058924;28;20040;-62
2021/09/22 08:30:09;;;;;;;24.77;15.35;;;12.50;99.90;;;;;;5069855;28;20021;-62
2021/09/22 08:32:34;;;;;;;24.70;15.25;;;12.70;99.90;;;;;;5061104;28;20058;-62
2021/09/22 08:35:01;;;;;;;26.25;16.52;;;12.80;99.90;;;;;;5069941;28;20020;-61
2021/09/22 08:37:26;;;;;;;26.48;15.23;;;12.90;99.90;;;;;;5065177;28;20037;-61
2021/09/22 08:39:52;;;;;;;33.33;15.95;;;13.00;99.90;;;;;;5054943;28;20378;-61
2021/09/22 08:42:17;;;;;;;29.75;15.45;;;13.10;99.90;;;;;;5065361;28;20028;-61
2021/09/22 08:44:43;;;;;;;34.58;16.33;;;13.20;99.90;;;;;;5049869;28;20033;-61
2021/09/22 08:47:09;;;;;;;27.77;14.40;;;13.30;99.90;;;;;;5057577;28;20031;-61
2021/09/22 08:49:36;;;;;;;29.75;17.38;;;13.40;99.90;;;;;;5067887;28;20060;-60
2021/09/22 08:52:02;;;;;;;26.02;16.13;;;13.50;99.90;;;;;;5049940;28;20017;-60
2021/09/22 08:54:29;;;;;;;27.75;16.85;;;13.60;99.90;;;;;;5062595;28;20552;-61
2021/09/22 08:56:56;;;;;;;32.38;18.42;;;13.70;99.90;;;;;;5058046;28;20090;-60
2021/09/22 08:59:22;;;;;;;26.02;16.45;;;13.80;99.90;;;;;;5063626;28;20283;-61
2021/09/22 09:02:12;;;;;;;29.27;16.00;;;13.90;99.90;;;;;;5066201;28;20055;-61
2021/09/22 09:04:39;;;;;;;32.35;16.63;;;14.00;99.90;;;;;;5038430;28;20087;-61
2021/09/22 09:07:06;;;;;;;26.35;15.80;;;14.00;99.90;;;;;;5053597;28;20033;-60
2021/09/22 09:09:36;;;;;;;29.83;17.58;;;14.10;99.90;;;;;;5038847;28;20123;-62
2021/09/22 09:12:13;;;;;;;26.38;14.82;;;14.20;99.90;;;;;;5054156;28;20057;-59
2021/09/22 09:14:39;;;;;;;33.65;15.63;;;14.30;99.90;;;;;;5055526;28;20104;-62
2021/09/22 09:17:11;;;;;;;30.30;16.27;;;14.50;99.90;;;;;;5067026;28;20701;-60
2021/09/22 09:19:44;;;;;;;28.42;14.80;;;14.60;99.90;;;;;;5057152;28;20550;-62
2021/09/22 09:22:09;;;;;;;27.05;15.98;;;14.60;99.90;;;;;;5056899;28;20040;-61
2021/09/22 09:24:47;;;;;;;31.98;14.57;;;14.60;99.90;;;;;;5059646;28;20029;-62
2021/09/22 09:27:24;;;;;;;24.08;13.40;;;14.70;99.90;;;;;;5061455;28;20040;-62
2021/09/22 09:29:54;;;;;;;29.48;15.70;;;14.90;99.90;;;;;;5053055;28;20025;-60
2021/09/22 09:32:23;;;;;;;34.35;15.93;;;15.00;99.90;;;;;;5035864;28;20018;-61
2021/09/22 09:35:00;;;;;;;29.50;15.32;;;15.10;99.90;;;;;;5066025;28;20487;-61
2021/09/22 09:37:30;;;;;;;28.15;14.23;;;15.20;99.90;;;;;;5072238;28;20051;-60
2021/09/22 09:39:57;;;;;;;24.90;15.77;;;15.20;99.90;;;;;;5065682;28;20053;-61
2021/09/22 09:42:29;;;;;;;25.20;14.23;;;15.40;99.90;;;;;;5061797;28;20033;-60
2021/09/22 09:44:57;;;;;;;36.17;14.98;;;15.50;99.90;;;;;;5055988;28;20033;-61
2021/09/22 09:47:23;;;;;;;27.83;14.95;;;15.60;99.90;;;;;;5052678;28;20025;-60
2021/09/22 09:49:49;;;;;;;26.27;15.43;;;15.80;99.90;;;;;;5053032;28;20505;-61
2021/09/22 09:52:15;;;;;;;31.58;16.13;;;15.90;99.90;;;;;;5052941;28;20017;-61
2021/09/22 09:54:48;;;;;;;29.42;15.52;;;16.10;99.90;;;;;;5066014;28;20542;-61
2021/09/22 09:57:16;;;;;;;33.60;16.65;;;16.10;99.90;;;;;;5065281;28;20025;-61
2021/09/22 09:59:53;;;;;;;33.17;16.50;;;16.30;99.90;;;;;;5052837;28;20064;-61
2021/09/22 10:02:28;;;;;;;24.45;15.15;;;16.40;99.90;;;;;;5066842;28;20111;-60
2021/09/22 10:04:56;;;;;;;30.60;13.05;;;16.70;99.90;;;;;;5068606;28;20040;-60
2021/09/22 10:07:22;;;;;;;29.13;13.32;;;16.90;99.90;;;;;;5071803;28;20024;-61
2021/09/22 10:09:49;;;;;;;30.45;14.57;;;17.10;99.90;;;;;;5066660;28;20052;-61
2021/09/22 10:12:16;;;;;;;27.23;14.65;;;17.10;99.90;;;;;;5060078;28;20109;-61
2021/09/22 10:14:44;;;;;;;26.38;13.23;;;17.30;99.90;;;;;;5066112;28;20037;-61
2021/09/22 10:17:10;;;;;;;25.73;13.48;;;17.40;99.90;;;;;;5072042;28;20048;-61
2021/09/22 10:19:36;;;;;;;26.38;15.52;;;17.50;99.90;;;;;;5071850;28;20107;-60
2021/09/22 10:22:02;;;;;;;24.30;14.05;;;17.50;99.90;;;;;;5065988;28;20186;-59
2021/09/22 10:24:28;;;;;;;31.85;14.82;;;17.60;99.90;;;;;;5065146;28;20058;-60
2021/09/22 10:26:54;;;;;;;27.73;15.43;;;17.60;99.90;;;;;;5071473;28;20090;-61
2021/09/22 10:29:28;;;;;;;23.42;14.40;;;17.80;99.90;;;;;;5049948;28;20051;-61
2021/09/22 10:31:56;;;;;;;27.38;14.60;;;17.80;99.90;;;;;;5063200;28;20087;-61
2021/09/22 10:34:32;;;;;;;31.98;16.95;;;17.80;99.90;;;;;;5071078;28;20033;-60
2021/09/22 10:36:58;;;;;;;29.48;16.08;;;17.80;99.90;;;;;;5059115;28;20508;-59
2021/09/22 10:39:36;;;;;;;28.63;16.05;;;18.00;99.90;;;;;;5063903;28;20020;-61
2021/09/22 10:42:21;;;;;;;29.38;14.77;;;17.90;99.90;;;;;;5064211;28;20032;-60
2021/09/22 10:44:46;;;;;;;34.35;15.85;;;18.10;99.90;;;;;;5071522;28;20420;-59
2021/09/22 10:47:28;;;;;;;29.70;16.63;;;18.20;99.90;;;;;;5070845;28;20100;-60
2021/09/22 10:49:54;;;;;;;31.17;17.58;;;18.40;99.90;;;;;;5066319;28;20037;-60
2021/09/22 10:52:38;;;;;;;33.00;16.33;;;18.50;99.90;;;;;;5071898;28;20129;-60
2021/09/22 10:55:16;;;;;;;34.83;17.30;;;18.50;99.90;;;;;;5053849;28;20527;-60
2021/09/22 10:57:47;;;;;;;43.08;20.38;;;18.50;99.90;;;;;;5051290;28;20031;-58
2021/09/22 11:00:18;;;;;;;45.13;21.08;;;18.60;99.90;;;;;;5052086;28;20025;-60
2021/09/22 11:02:53;;;;;;;39.60;21.98;;;18.70;99.90;;;;;;5063518;28;20496;-60
2021/09/22 11:05:28;;;;;;;41.05;22.52;;;18.40;99.90;;;;;;5054568;28;20415;-60
2021/09/22 11:07:56;;;;;;;32.90;19.92;;;18.30;99.90;;;;;;5073866;28;20063;-60
2021/09/22 11:10:43;;;;;;;37.75;20.20;;;18.40;99.90;;;;;;5064186;28;20032;-60
2021/09/22 11:13:21;;;;;;;38.45;18.42;;;18.50;99.90;;;;;;5052288;28;20021;-61
2021/09/22 11:15:48;;;;;;;31.25;18.20;;;18.50;99.90;;;;;;5062166;28;20017;-60
2021/09/22 11:18:18;;;;;;;40.35;19.88;;;18.60;99.90;;;;;;5064460;28;20032;-58
2021/09/22 11:20:57;;;;;;;31.80;19.33;;;18.80;99.90;;;;;;5053115;28;20426;-59
2021/09/22 11:23:24;;;;;;;40.53;18.30;;;18.80;99.90;;;;;;5057496;28;20040;-60
2021/09/22 11:25:49;;;;;;;36.50;18.80;;;19.00;99.90;;;;;;5055234;28;20063;-60
2021/09/22 11:28:15;;;;;;;33.90;17.20;;;19.10;99.90;;;;;;5051113;28;20048;-60
2021/09/22 11:30:43;;;;;;;38.20;18.25;;;19.10;99.90;;;;;;5033637;28;20029;-61
2021/09/22 11:33:19;;;;;;;41.42;20.48;;;19.10;99.90;;;;;;5057295;28;20107;-61
2021/09/22 11:35:45;;;;;;;32.40;15.82;;;19.40;99.90;;;;;;5050611;28;20441;-60
2021/09/22 11:38:10;;;;;;;35.38;18.50;;;19.50;99.90;;;;;;5051300;28;20057;-60
2021/09/22 11:40:37;;;;;;;38.40;18.85;;;19.30;99.90;;;;;;5058229;28;20035;-60
2021/09/22 11:43:05;;;;;;;32.00;16.35;;;19.60;99.90;;;;;;5063763;28;20414;-60
2021/09/22 11:45:34;;;;;;;34.38;17.40;;;19.70;99.90;;;;;;5070021;28;20099;-61
2021/09/22 11:48:00;;;;;;;31.17;18.05;;;19.70;99.90;;;;;;5069714;28;20307;-60
2021/09/22 11:50:35;;;;;;;30.10;16.65;;;19.80;99.90;;;;;;5066031;28;20116;-61
2021/09/22 11:53:01;;;;;;;29.02;17.00;;;19.70;99.90;;;;;;5070006;28;20025;-61
2021/09/22 11:55:27;;;;;;;26.48;15.07;;;19.80;99.90;;;;;;5066605;28;20028;-60
2021/09/22 11:57:53;;;;;;;24.80;14.18;;;20.00;99.90;;;;;;5069145;28;20044;-60
2021/09/22 12:00:22;;;;;;;29.50;16.30;;;20.20;99.90;;;;;;5066561;28;20060;-60
2021/09/22 12:02:48;;;;;;;28.08;15.70;;;20.30;99.90;;;;;;5062641;28;20127;-59
2021/09/22 12:05:18;;;;;;;25.25;16.08;;;20.30;99.90;;;;;;5051106;28;20111;-60
2021/09/22 12:07:45;;;;;;;37.65;16.33;;;20.40;99.90;;;;;;5061706;28;20055;-60
2021/09/22 12:10:12;;;;;;;26.05;16.00;;;20.40;99.90;;;;;;5066157;28;20118;-60
2021/09/22 12:12:39;;;;;;;30.88;13.25;;;20.30;99.90;;;;;;5057447;28;20087;-61
2021/09/22 12:15:07;;;;;;;28.42;14.48;;;20.40;99.90;;;;;;5061167;28;20488;-60
2021/09/22 12:17:35;;;;;;;21.30;12.38;;;20.50;99.90;;;;;;5052203;28;20330;-60
2021/09/22 12:20:04;;;;;;;24.30;14.43;;;20.70;99.90;;;;;;5060169;28;20024;-60
2021/09/22 12:22:33;;;;;;;29.77;15.98;;;20.70;99.90;;;;;;5055720;28;20059;-60
2021/09/22 12:25:00;;;;;;;23.70;14.40;;;21.00;99.90;;;;;;5053724;28;20045;-60
2021/09/22 12:27:29;;;;;;;21.17;13.75;;;21.10;99.90;;;;;;5062756;28;20393;-60
2021/09/22 12:30:03;;;;;;;27.52;13.35;;;21.00;99.90;;;;;;5050761;28;20035;-60
2021/09/22 12:32:30;;;;;;;26.08;14.70;;;21.30;99.90;;;;;;5054961;28;20059;-61